sensor_id;sensor_type;location;lat;lon;timestamp;P1;durP1;ratioP1;P2;durP2;ratioP2
13439;SDS011;6792;57.698;11.946;2022-11-21T00:01:34;0.10;;;0.00;;
13439;SDS011;6792;57.698;11.946;2022-11-21T00:04:03;1.23;;;0.23;;
13439;SDS011;6792;57.698;11.946;2022-11-21T00:06:35;0.37;;;0.20;;
13439;SDS011;6792;57.698;11.946;2022-11-21T00:09:04;0.10;;;0.10;;
13439;SDS011;6792;57.698;11.946;2022-11-21T00:11:33;0.23;;;0.10;;
13439;SDS011;6792;57.698;11.946;2022-11-21T00:14:04;0.10;;;0.10;;
13439;SDS011;6792;57.698;11.946;2022-11-21T00:16:33;0.50;;;0.20;;
13439;SDS011;6792;57.698;11.946;2022-11-21T00:19:02;0.10;;;0.10;;
13439;SDS011;6792;57.698;11.946;2022-11-21T00:21:34;0.50;;;0.13;;
13439;SDS011;6792;57.698;11.946;2022-11-21T00:24:04;0.10;;;0.10;;
13439;SDS011;6792;57.698;11.946;2022-11-21T00:26:35;0.10;;;0.10;;
13439;SDS011;6792;57.698;11.946;2022-11-21T00:29:05;0.10;;;0.10;;
13439;SDS011;6792;57.698;11.946;2022-11-21T00:31:34;0.00;;;0.00;;
13439;SDS011;6792;57.698;11.946;2022-11-21T00:34:06;0.10;;;0.03;;
13439;SDS011;6792;57.698;11.946;2022-11-21T00:36:35;0.20;;;0.10;;
13439;SDS011;6792;57.698;11.946;2022-11-21T00:39:04;0.20;;;0.10;;
13439;SDS011;6792;57.698;11.946;2022-11-21T00:41:34;1.70;;;0.07;;
13439;SDS011;6792;57.698;11.946;2022-11-21T00:44:04;0.10;;;0.10;;
13439;SDS011;6792;57.698;11.946;2022-11-21T00:46:36;0.10;;;0.00;;
13439;SDS011;6792;57.698;11.946;2022-11-21T00:49:04;0.10;;;0.10;;
13439;SDS011;6792;57.698;11.946;2022-11-21T00:51:33;0.10;;;0.10;;
13439;SDS011;6792;57.698;11.946;2022-11-21T00:54:05;0.00;;;0.00;;
13439;SDS011;6792;57.698;11.946;2022-11-21T00:56:35;0.10;;;0.00;;
13439;SDS011;6792;57.698;11.946;2022-11-21T00:59:04;0.10;;;0.00;;
13439;SDS011;6792;57.698;11.946;2022-11-21T01:01:33;0.10;;;0.10;;
13439;SDS011;6792;57.698;11.946;2022-11-21T01:04:04;0.10;;;0.10;;
13439;SDS011;6792;57.698;11.946;2022-11-21T01:06:33;0.03;;;0.03;;
13439;SDS011;6792;57.698;11.946;2022-11-21T01:09:03;0.10;;;0.10;;
13439;SDS011;6792;57.698;11.946;2022-11-21T01:11:33;0.00;;;0.00;;
13439;SDS011;6792;57.698;11.946;2022-11-21T01:14:04;0.00;;;0.00;;
13439;SDS011;6792;57.698;11.946;2022-11-21T01:16:36;0.10;;;0.10;;
13439;SDS011;6792;57.698;11.946;2022-11-21T01:19:06;1.03;;;0.80;;
13439;SDS011;6792;57.698;11.946;2022-11-21T01:21:35;0.83;;;0.50;;
13439;SDS011;6792;57.698;11.946;2022-11-21T01:24:04;0.57;;;0.20;;
13439;SDS011;6792;57.698;11.946;2022-11-21T01:26:33;0.67;;;0.40;;
13439;SDS011;6792;57.698;11.946;2022-11-21T01:29:03;0.20;;;0.20;;
13439;SDS011;6792;57.698;11.946;2022-11-21T01:31:34;0.17;;;0.17;;
13439;SDS011;6792;57.698;11.946;2022-11-21T01:34:05;0.20;;;0.20;;
13439;SDS011;6792;57.698;11.946;2022-11-21T01:36:34;0.50;;;0.17;;
13439;SDS011;6792;57.698;11.946;2022-11-21T01:39:04;0.73;;;0.20;;
13439;SDS011;6792;57.698;11.946;2022-11-21T01:41:34;0.00;;;0.00;;
13439;SDS011;6792;57.698;11.946;2022-11-21T01:44:09;0.03;;;0.03;;
13439;SDS011;6792;57.698;11.946;2022-11-21T01:46:42;0.10;;;0.10;;
13439;SDS011;6792;57.698;11.946;2022-11-21T01:49:12;0.13;;;0.10;;
13439;SDS011;6792;57.698;11.946;2022-11-21T01:51:45;0.33;;;0.20;;
13439;SDS011;6792;57.698;11.946;2022-11-21T01:54:17;0.00;;;0.00;;
13439;SDS011;6792;57.698;11.946;2022-11-21T01:56:50;0.10;;;0.10;;
13439;SDS011;6792;57.698;11.946;2022-11-21T01:59:23;0.10;;;0.10;;
13439;SDS011;6792;57.698;11.946;2022-11-21T02:01:54;0.00;;;0.00;;
13439;SDS011;6792;57.698;11.946;2022-11-21T02:04:24;0.00;;;0.00;;
13439;SDS011;6792;57.698;11.946;2022-11-21T02:06:56;0.00;;;0.00;;
13439;SDS011;6792;57.698;11.946;2022-11-21T02:09:26;0.13;;;0.00;;
13439;SDS011;6792;57.698;11.946;2022-11-21T02:11:57;0.00;;;0.00;;
13439;SDS011;6792;57.698;11.946;2022-11-21T02:14:29;0.20;;;0.10;;
13439;SDS011;6792;57.698;11.946;2022-11-21T02:17:00;0.10;;;0.00;;
13439;SDS011;6792;57.698;11.946;2022-11-21T02:19:35;0.10;;;0.10;;
13439;SDS011;6792;57.698;11.946;2022-11-21T02:22:06;0.00;;;0.00;;
13439;SDS011;6792;57.698;11.946;2022-11-21T02:24:39;0.10;;;0.00;;
13439;SDS011;6792;57.698;11.946;2022-11-21T02:27:10;0.10;;;0.10;;
13439;SDS011;6792;57.698;11.946;2022-11-21T02:29:39;0.13;;;0.10;;
13439;SDS011;6792;57.698;11.946;2022-11-21T02:32:18;0.10;;;0.10;;
13439;SDS011;6792;57.698;11.946;2022-11-21T02:34:47;0.10;;;0.10;;
13439;SDS011;6792;57.698;11.946;2022-11-21T02:37:17;0.27;;;0.20;;
13439;SDS011;6792;57.698;11.946;2022-11-21T02:39:46;0.00;;;0.00;;
13439;SDS011;6792;57.698;11.946;2022-11-21T02:42:16;0.20;;;0.10;;
13439;SDS011;6792;57.698;11.946;2022-11-21T02:44:50;1.23;;;0.10;;
13439;SDS011;6792;57.698;11.946;2022-11-21T02:47:20;0.17;;;0.17;;
13439;SDS011;6792;57.698;11.946;2022-11-21T02:49:52;0.50;;;0.13;;
13439;SDS011;6792;57.698;11.946;2022-11-21T02:52:23;0.30;;;0.10;;
13439;SDS011;6792;57.698;11.946;2022-11-21T02:54:51;0.33;;;0.10;;
13439;SDS011;6792;57.698;11.946;2022-11-21T02:57:20;0.10;;;0.10;;
13439;SDS011;6792;57.698;11.946;2022-11-21T02:59:49;0.10;;;0.10;;
13439;SDS011;6792;57.698;11.946;2022-11-21T03:02:18;0.30;;;0.10;;
13439;SDS011;6792;57.698;11.946;2022-11-21T03:04:47;0.10;;;0.10;;
13439;SDS011;6792;57.698;11.946;2022-11-21T03:07:17;1.40;;;0.10;;
13439;SDS011;6792;57.698;11.946;2022-11-21T03:09:46;0.17;;;0.17;;
13439;SDS011;6792;57.698;11.946;2022-11-21T03:12:15;0.10;;;0.10;;
13439;SDS011;6792;57.698;11.946;2022-11-21T03:14:44;0.10;;;0.10;;
13439;SDS011;6792;57.698;11.946;2022-11-21T03:17:13;0.10;;;0.10;;
13439;SDS011;6792;57.698;11.946;2022-11-21T03:19:42;0.10;;;0.10;;
13439;SDS011;6792;57.698;11.946;2022-11-21T03:22:11;0.30;;;0.30;;
13439;SDS011;6792;57.698;11.946;2022-11-21T03:24:41;0.43;;;0.20;;
13439;SDS011;6792;57.698;11.946;2022-11-21T03:27:10;0.03;;;0.03;;
13439;SDS011;6792;57.698;11.946;2022-11-21T03:29:39;0.30;;;0.20;;
13439;SDS011;6792;57.698;11.946;2022-11-21T03:32:08;0.30;;;0.30;;
13439;SDS011;6792;57.698;11.946;2022-11-21T03:34:37;0.10;;;0.10;;
13439;SDS011;6792;57.698;11.946;2022-11-21T03:37:06;0.17;;;0.17;;
13439;SDS011;6792;57.698;11.946;2022-11-21T03:39:34;0.20;;;0.20;;
13439;SDS011;6792;57.698;11.946;2022-11-21T03:42:04;0.43;;;0.20;;
13439;SDS011;6792;57.698;11.946;2022-11-21T03:44:33;0.40;;;0.40;;
13439;SDS011;6792;57.698;11.946;2022-11-21T03:47:03;0.30;;;0.30;;
13439;SDS011;6792;57.698;11.946;2022-11-21T03:49:34;0.30;;;0.30;;
13439;SDS011;6792;57.698;11.946;2022-11-21T03:52:03;0.43;;;0.40;;
13439;SDS011;6792;57.698;11.946;2022-11-21T03:54:34;0.40;;;0.40;;
13439;SDS011;6792;57.698;11.946;2022-11-21T03:57:03;0.40;;;0.40;;
13439;SDS011;6792;57.698;11.946;2022-11-21T03:59:33;0.40;;;0.40;;
13439;SDS011;6792;57.698;11.946;2022-11-21T04:02:02;0.37;;;0.37;;
13439;SDS011;6792;57.698;11.946;2022-11-21T04:04:30;0.93;;;0.50;;
13439;SDS011;6792;57.698;11.946;2022-11-21T04:07:00;0.47;;;0.47;;
13439;SDS011;6792;57.698;11.946;2022-11-21T04:09:29;0.67;;;0.67;;
13439;SDS011;6792;57.698;11.946;2022-11-21T04:11:59;0.70;;;0.70;;
13439;SDS011;6792;57.698;11.946;2022-11-21T04:14:27;1.87;;;0.73;;
13439;SDS011;6792;57.698;11.946;2022-11-21T04:16:56;1.00;;;0.80;;
13439;SDS011;6792;57.698;11.946;2022-11-21T04:19:25;0.73;;;0.73;;
13439;SDS011;6792;57.698;11.946;2022-11-21T04:21:54;2.20;;;0.77;;
13439;SDS011;6792;57.698;11.946;2022-11-21T04:24:23;0.70;;;0.70;;
13439;SDS011;6792;57.698;11.946;2022-11-21T04:26:53;1.17;;;0.80;;
13439;SDS011;6792;57.698;11.946;2022-11-21T04:29:22;1.97;;;0.90;;
13439;SDS011;6792;57.698;11.946;2022-11-21T04:31:51;0.77;;;0.77;;
13439;SDS011;6792;57.698;11.946;2022-11-21T04:34:20;3.10;;;0.90;;
13439;SDS011;6792;57.698;11.946;2022-11-21T04:36:49;1.13;;;0.70;;
13439;SDS011;6792;57.698;11.946;2022-11-21T04:39:18;0.60;;;0.60;;
13439;SDS011;6792;57.698;11.946;2022-11-21T04:41:46;1.13;;;0.90;;
13439;SDS011;6792;57.698;11.946;2022-11-21T04:44:15;1.13;;;1.00;;
13439;SDS011;6792;57.698;11.946;2022-11-21T04:46:44;1.10;;;1.00;;
13439;SDS011;6792;57.698;11.946;2022-11-21T04:49:13;1.00;;;0.70;;
13439;SDS011;6792;57.698;11.946;2022-11-21T04:51:42;0.70;;;0.70;;
13439;SDS011;6792;57.698;11.946;2022-11-21T04:54:11;0.70;;;0.70;;
13439;SDS011;6792;57.698;11.946;2022-11-21T04:56:41;1.30;;;0.70;;
13439;SDS011;6792;57.698;11.946;2022-11-21T04:59:10;0.60;;;0.60;;
13439;SDS011;6792;57.698;11.946;2022-11-21T05:01:39;0.87;;;0.60;;
13439;SDS011;6792;57.698;11.946;2022-11-21T05:04:08;0.87;;;0.67;;
13439;SDS011;6792;57.698;11.946;2022-11-21T05:06:36;1.13;;;0.67;;
13439;SDS011;6792;57.698;11.946;2022-11-21T05:09:05;1.07;;;0.70;;
13439;SDS011;6792;57.698;11.946;2022-11-21T05:11:34;0.70;;;0.60;;
13439;SDS011;6792;57.698;11.946;2022-11-21T05:14:21;0.80;;;0.70;;
13439;SDS011;6792;57.698;11.946;2022-11-21T05:16:51;0.73;;;0.73;;
13439;SDS011;6792;57.698;11.946;2022-11-21T05:19:23;0.70;;;0.60;;
13439;SDS011;6792;57.698;11.946;2022-11-21T05:21:52;0.70;;;0.70;;
13439;SDS011;6792;57.698;11.946;2022-11-21T05:24:22;0.70;;;0.60;;
13439;SDS011;6792;57.698;11.946;2022-11-21T05:26:54;0.67;;;0.50;;
13439;SDS011;6792;57.698;11.946;2022-11-21T05:29:23;0.93;;;0.83;;
13439;SDS011;6792;57.698;11.946;2022-11-21T05:31:52;0.73;;;0.70;;
13439;SDS011;6792;57.698;11.946;2022-11-21T05:34:21;2.30;;;0.67;;
13439;SDS011;6792;57.698;11.946;2022-11-21T05:36:52;1.03;;;0.80;;
13439;SDS011;6792;57.698;11.946;2022-11-21T05:39:23;1.10;;;0.80;;
13439;SDS011;6792;57.698;11.946;2022-11-21T05:41:52;1.33;;;0.97;;
13439;SDS011;6792;57.698;11.946;2022-11-21T05:44:22;1.53;;;0.70;;
13439;SDS011;6792;57.698;11.946;2022-11-21T05:46:51;1.13;;;0.80;;
13439;SDS011;6792;57.698;11.946;2022-11-21T05:49:19;0.90;;;0.80;;
13439;SDS011;6792;57.698;11.946;2022-11-21T05:51:48;1.00;;;0.80;;
13439;SDS011;6792;57.698;11.946;2022-11-21T05:54:17;1.10;;;0.60;;
13439;SDS011;6792;57.698;11.946;2022-11-21T05:56:46;0.97;;;0.50;;
13439;SDS011;6792;57.698;11.946;2022-11-21T05:59:15;1.43;;;0.77;;
13439;SDS011;6792;57.698;11.946;2022-11-21T06:01:44;1.40;;;0.80;;
13439;SDS011;6792;57.698;11.946;2022-11-21T06:04:31;0.97;;;0.90;;
13439;SDS011;6792;57.698;11.946;2022-11-21T06:07:02;0.80;;;0.63;;
13439;SDS011;6792;57.698;11.946;2022-11-21T06:09:41;1.13;;;0.60;;
13439;SDS011;6792;57.698;11.946;2022-11-21T06:12:10;3.53;;;1.00;;
13439;SDS011;6792;57.698;11.946;2022-11-21T06:14:40;1.10;;;0.70;;
13439;SDS011;6792;57.698;11.946;2022-11-21T06:17:09;1.07;;;0.60;;
13439;SDS011;6792;57.698;11.946;2022-11-21T06:19:39;0.80;;;0.60;;
13439;SDS011;6792;57.698;11.946;2022-11-21T06:22:09;0.73;;;0.57;;
13439;SDS011;6792;57.698;11.946;2022-11-21T06:24:38;0.60;;;0.60;;
13439;SDS011;6792;57.698;11.946;2022-11-21T06:27:07;1.17;;;0.90;;
13439;SDS011;6792;57.698;11.946;2022-11-21T06:29:36;0.97;;;0.67;;
13439;SDS011;6792;57.698;11.946;2022-11-21T06:32:06;1.60;;;0.90;;
13439;SDS011;6792;57.698;11.946;2022-11-21T06:34:35;0.60;;;0.60;;
13439;SDS011;6792;57.698;11.946;2022-11-21T06:37:04;2.40;;;1.00;;
13439;SDS011;6792;57.698;11.946;2022-11-21T06:39:35;2.17;;;0.93;;
13439;SDS011;6792;57.698;11.946;2022-11-21T06:42:05;1.37;;;1.00;;
13439;SDS011;6792;57.698;11.946;2022-11-21T06:44:34;2.73;;;1.20;;
13439;SDS011;6792;57.698;11.946;2022-11-21T06:47:03;1.40;;;1.10;;
13439;SDS011;6792;57.698;11.946;2022-11-21T06:49:34;1.10;;;1.00;;
13439;SDS011;6792;57.698;11.946;2022-11-21T06:52:03;1.40;;;1.27;;
13439;SDS011;6792;57.698;11.946;2022-11-21T06:54:33;2.63;;;1.17;;
13439;SDS011;6792;57.698;11.946;2022-11-21T06:57:04;3.13;;;1.00;;
13439;SDS011;6792;57.698;11.946;2022-11-21T06:59:34;2.27;;;1.27;;
13439;SDS011;6792;57.698;11.946;2022-11-21T07:02:03;1.93;;;1.40;;
13439;SDS011;6792;57.698;11.946;2022-11-21T07:04:35;4.93;;;1.37;;
13439;SDS011;6792;57.698;11.946;2022-11-21T07:07:04;2.20;;;1.40;;
13439;SDS011;6792;57.698;11.946;2022-11-21T07:09:33;2.93;;;1.53;;
13439;SDS011;6792;57.698;11.946;2022-11-21T07:12:05;2.03;;;1.30;;
13439;SDS011;6792;57.698;11.946;2022-11-21T07:14:52;4.00;;;1.73;;
13439;SDS011;6792;57.698;11.946;2022-11-21T07:17:21;1.87;;;1.47;;
13439;SDS011;6792;57.698;11.946;2022-11-21T07:19:50;3.70;;;1.20;;
13439;SDS011;6792;57.698;11.946;2022-11-21T07:22:19;3.47;;;1.30;;
13439;SDS011;6792;57.698;11.946;2022-11-21T07:24:48;5.63;;;2.03;;
13439;SDS011;6792;57.698;11.946;2022-11-21T07:27:17;1.93;;;1.50;;
13439;SDS011;6792;57.698;11.946;2022-11-21T07:29:46;3.20;;;1.53;;
13439;SDS011;6792;57.698;11.946;2022-11-21T07:32:17;2.47;;;1.30;;
13439;SDS011;6792;57.698;11.946;2022-11-21T07:34:46;1.33;;;1.10;;
13439;SDS011;6792;57.698;11.946;2022-11-21T07:37:15;0.97;;;0.97;;
13439;SDS011;6792;57.698;11.946;2022-11-21T07:39:44;1.73;;;1.20;;
13439;SDS011;6792;57.698;11.946;2022-11-21T07:42:13;1.23;;;1.10;;
13439;SDS011;6792;57.698;11.946;2022-11-21T07:44:42;1.20;;;0.93;;
13439;SDS011;6792;57.698;11.946;2022-11-21T07:47:11;1.40;;;0.90;;
13439;SDS011;6792;57.698;11.946;2022-11-21T07:49:41;2.00;;;1.40;;
13439;SDS011;6792;57.698;11.946;2022-11-21T07:52:09;3.60;;;1.40;;
13439;SDS011;6792;57.698;11.946;2022-11-21T07:54:38;1.43;;;1.27;;
13439;SDS011;6792;57.698;11.946;2022-11-21T07:57:07;1.40;;;1.10;;
13439;SDS011;6792;57.698;11.946;2022-11-21T07:59:36;4.13;;;1.27;;
13439;SDS011;6792;57.698;11.946;2022-11-21T08:02:06;2.63;;;1.40;;
13439;SDS011;6792;57.698;11.946;2022-11-21T08:04:40;1.57;;;1.33;;
13439;SDS011;6792;57.698;11.946;2022-11-21T08:07:31;2.43;;;1.37;;
13439;SDS011;6792;57.698;11.946;2022-11-21T08:10:25;2.63;;;1.57;;
13439;SDS011;6792;57.698;11.946;2022-11-21T08:12:55;1.60;;;1.50;;
13439;SDS011;6792;57.698;11.946;2022-11-21T08:15:25;3.37;;;1.10;;
13439;SDS011;6792;57.698;11.946;2022-11-21T08:17:54;1.97;;;1.13;;
13439;SDS011;6792;57.698;11.946;2022-11-21T08:20:23;1.30;;;0.90;;
13439;SDS011;6792;57.698;11.946;2022-11-21T08:22:52;1.43;;;0.90;;
13439;SDS011;6792;57.698;11.946;2022-11-21T08:25:23;1.20;;;1.00;;
13439;SDS011;6792;57.698;11.946;2022-11-21T08:27:55;1.43;;;1.07;;
13439;SDS011;6792;57.698;11.946;2022-11-21T08:30:25;3.17;;;1.30;;
13439;SDS011;6792;57.698;11.946;2022-11-21T08:32:55;1.50;;;1.40;;
13439;SDS011;6792;57.698;11.946;2022-11-21T08:35:30;3.53;;;1.83;;
13439;SDS011;6792;57.698;11.946;2022-11-21T08:38:05;3.00;;;2.00;;
13439;SDS011;6792;57.698;11.946;2022-11-21T08:40:35;2.00;;;1.57;;
13439;SDS011;6792;57.698;11.946;2022-11-21T08:43:06;3.03;;;1.30;;
13439;SDS011;6792;57.698;11.946;2022-11-21T08:45:36;1.07;;;0.97;;
13439;SDS011;6792;57.698;11.946;2022-11-21T08:48:08;2.57;;;1.20;;
13439;SDS011;6792;57.698;11.946;2022-11-21T08:50:38;3.83;;;1.97;;
13439;SDS011;6792;57.698;11.946;2022-11-21T08:53:10;2.83;;;1.70;;
13439;SDS011;6792;57.698;11.946;2022-11-21T08:55:39;4.13;;;1.20;;
13439;SDS011;6792;57.698;11.946;2022-11-21T08:58:09;1.70;;;1.40;;
13439;SDS011;6792;57.698;11.946;2022-11-21T09:00:38;1.90;;;1.07;;
13439;SDS011;6792;57.698;11.946;2022-11-21T09:03:07;1.07;;;0.97;;
13439;SDS011;6792;57.698;11.946;2022-11-21T09:05:36;1.13;;;0.90;;
13439;SDS011;6792;57.698;11.946;2022-11-21T09:08:06;6.00;;;1.07;;
13439;SDS011;6792;57.698;11.946;2022-11-21T09:10:35;1.57;;;0.83;;
13439;SDS011;6792;57.698;11.946;2022-11-21T09:13:04;0.77;;;0.77;;
13439;SDS011;6792;57.698;11.946;2022-11-21T09:15:33;2.00;;;0.90;;
13439;SDS011;6792;57.698;11.946;2022-11-21T09:18:20;2.60;;;1.00;;
13439;SDS011;6792;57.698;11.946;2022-11-21T09:20:49;3.47;;;0.80;;
13439;SDS011;6792;57.698;11.946;2022-11-21T09:23:18;1.00;;;0.87;;
13439;SDS011;6792;57.698;11.946;2022-11-21T09:25:47;3.93;;;1.10;;
13439;SDS011;6792;57.698;11.946;2022-11-21T09:28:16;2.03;;;0.90;;
13439;SDS011;6792;57.698;11.946;2022-11-21T09:30:45;1.50;;;0.90;;
13439;SDS011;6792;57.698;11.946;2022-11-21T09:33:14;0.83;;;0.83;;
13439;SDS011;6792;57.698;11.946;2022-11-21T09:35:44;1.93;;;0.87;;
13439;SDS011;6792;57.698;11.946;2022-11-21T09:38:13;1.97;;;1.17;;
13439;SDS011;6792;57.698;11.946;2022-11-21T09:40:43;0.80;;;0.77;;
13439;SDS011;6792;57.698;11.946;2022-11-21T09:43:19;1.20;;;1.10;;
13439;SDS011;6792;57.698;11.946;2022-11-21T09:45:55;1.43;;;1.03;;
13439;SDS011;6792;57.698;11.946;2022-11-21T09:48:28;1.47;;;0.90;;
13439;SDS011;6792;57.698;11.946;2022-11-21T09:51:04;3.17;;;1.00;;
13439;SDS011;6792;57.698;11.946;2022-11-21T09:53:36;1.53;;;1.20;;
13439;SDS011;6792;57.698;11.946;2022-11-21T09:56:10;1.30;;;1.20;;
13439;SDS011;6792;57.698;11.946;2022-11-21T09:58:43;1.50;;;1.40;;
13439;SDS011;6792;57.698;11.946;2022-11-21T10:01:15;2.63;;;1.00;;
13439;SDS011;6792;57.698;11.946;2022-11-21T10:03:45;3.30;;;1.43;;
13439;SDS011;6792;57.698;11.946;2022-11-21T10:06:17;1.93;;;1.50;;
13439;SDS011;6792;57.698;11.946;2022-11-21T10:08:51;1.33;;;1.20;;
13439;SDS011;6792;57.698;11.946;2022-11-21T10:11:26;1.47;;;1.00;;
13439;SDS011;6792;57.698;11.946;2022-11-21T10:14:06;2.27;;;1.33;;
13439;SDS011;6792;57.698;11.946;2022-11-21T10:16:40;2.37;;;1.40;;
13439;SDS011;6792;57.698;11.946;2022-11-21T10:19:15;1.20;;;1.10;;
13439;SDS011;6792;57.698;11.946;2022-11-21T10:22:09;3.13;;;1.10;;
13439;SDS011;6792;57.698;11.946;2022-11-21T10:24:48;1.13;;;0.90;;
13439;SDS011;6792;57.698;11.946;2022-11-21T10:27:26;1.40;;;0.80;;
13439;SDS011;6792;57.698;11.946;2022-11-21T10:30:05;1.50;;;0.90;;
13439;SDS011;6792;57.698;11.946;2022-11-21T10:32:41;0.93;;;0.87;;
13439;SDS011;6792;57.698;11.946;2022-11-21T10:35:13;2.73;;;1.10;;
13439;SDS011;6792;57.698;11.946;2022-11-21T10:37:46;1.03;;;0.87;;
13439;SDS011;6792;57.698;11.946;2022-11-21T10:40:21;1.47;;;0.97;;
13439;SDS011;6792;57.698;11.946;2022-11-21T10:42:56;1.93;;;1.80;;
13439;SDS011;6792;57.698;11.946;2022-11-21T10:45:29;1.37;;;0.67;;
13439;SDS011;6792;57.698;11.946;2022-11-21T10:47:58;1.10;;;1.00;;
13439;SDS011;6792;57.698;11.946;2022-11-21T10:50:45;1.07;;;0.77;;
13439;SDS011;6792;57.698;11.946;2022-11-21T10:53:19;1.73;;;0.83;;
13439;SDS011;6792;57.698;11.946;2022-11-21T10:59:20;0.83;;;0.80;;
13439;SDS011;6792;57.698;11.946;2022-11-21T11:01:56;1.47;;;0.80;;
13439;SDS011;6792;57.698;11.946;2022-11-21T11:04:28;1.23;;;0.80;;
13439;SDS011;6792;57.698;11.946;2022-11-21T11:07:12;0.80;;;0.70;;
13439;SDS011;6792;57.698;11.946;2022-11-21T11:09:46;1.87;;;1.10;;
13439;SDS011;6792;57.698;11.946;2022-11-21T11:12:39;1.13;;;0.80;;
13439;SDS011;6792;57.698;11.946;2022-11-21T11:15:26;1.37;;;1.00;;
13439;SDS011;6792;57.698;11.946;2022-11-21T11:17:56;1.43;;;0.70;;
13439;SDS011;6792;57.698;11.946;2022-11-21T11:20:32;0.70;;;0.70;;
13439;SDS011;6792;57.698;11.946;2022-11-21T11:23:16;0.90;;;0.80;;
13439;SDS011;6792;57.698;11.946;2022-11-21T11:25:53;2.57;;;0.90;;
13439;SDS011;6792;57.698;11.946;2022-11-21T11:28:24;0.70;;;0.70;;
13439;SDS011;6792;57.698;11.946;2022-11-21T11:30:55;1.00;;;0.60;;
13439;SDS011;6792;57.698;11.946;2022-11-21T11:33:32;0.83;;;0.67;;
13439;SDS011;6792;57.698;11.946;2022-11-21T11:39:20;0.93;;;0.80;;
13439;SDS011;6792;57.698;11.946;2022-11-21T11:41:54;0.87;;;0.73;;
13439;SDS011;6792;57.698;11.946;2022-11-21T11:44:57;0.97;;;0.87;;
13439;SDS011;6792;57.698;11.946;2022-11-21T11:47:51;0.60;;;0.60;;
13439;SDS011;6792;57.698;11.946;2022-11-21T11:50:22;1.20;;;0.90;;
13439;SDS011;6792;57.698;11.946;2022-11-21T11:52:58;1.10;;;0.80;;
13439;SDS011;6792;57.698;11.946;2022-11-21T11:55:32;1.13;;;1.03;;
13439;SDS011;6792;57.698;11.946;2022-11-21T11:58:05;0.80;;;0.73;;
13439;SDS011;6792;57.698;11.946;2022-11-21T12:00:41;1.33;;;0.90;;
13439;SDS011;6792;57.698;11.946;2022-11-21T12:03:14;1.30;;;1.00;;
13439;SDS011;6792;57.698;11.946;2022-11-21T12:05:55;1.07;;;0.80;;
13439;SDS011;6792;57.698;11.946;2022-11-21T12:08:29;1.13;;;0.77;;
13439;SDS011;6792;57.698;11.946;2022-11-21T12:11:05;1.03;;;0.90;;
13439;SDS011;6792;57.698;11.946;2022-11-21T12:14:00;1.57;;;1.20;;
13439;SDS011;6792;57.698;11.946;2022-11-21T12:16:30;0.87;;;0.80;;
13439;SDS011;6792;57.698;11.946;2022-11-21T12:19:01;1.57;;;0.90;;
13439;SDS011;6792;57.698;11.946;2022-11-21T12:21:34;1.20;;;0.90;;
13439;SDS011;6792;57.698;11.946;2022-11-21T12:24:03;1.10;;;0.80;;
13439;SDS011;6792;57.698;11.946;2022-11-21T12:26:39;0.97;;;0.63;;
13439;SDS011;6792;57.698;11.946;2022-11-21T12:29:19;2.30;;;0.97;;
13439;SDS011;6792;57.698;11.946;2022-11-21T12:32:05;1.93;;;0.70;;
13439;SDS011;6792;57.698;11.946;2022-11-21T12:34:49;2.07;;;1.10;;
13439;SDS011;6792;57.698;11.946;2022-11-21T12:37:47;1.60;;;1.30;;
13439;SDS011;6792;57.698;11.946;2022-11-21T12:40:23;1.30;;;1.17;;
13439;SDS011;6792;57.698;11.946;2022-11-21T12:43:02;1.17;;;0.90;;
13439;SDS011;6792;57.698;11.946;2022-11-21T12:45:35;1.67;;;1.37;;
13439;SDS011;6792;57.698;11.946;2022-11-21T12:48:10;2.00;;;1.20;;
13439;SDS011;6792;57.698;11.946;2022-11-21T12:57:49;1.53;;;0.70;;
13439;SDS011;6792;57.698;11.946;2022-11-21T13:00:44;2.33;;;0.77;;
13439;SDS011;6792;57.698;11.946;2022-11-21T13:03:25;1.17;;;0.80;;
13439;SDS011;6792;57.698;11.946;2022-11-21T13:05:58;0.83;;;0.73;;
13439;SDS011;6792;57.698;11.946;2022-11-21T13:08:30;1.13;;;0.80;;
13439;SDS011;6792;57.698;11.946;2022-11-21T13:11:05;1.30;;;1.00;;
13439;SDS011;6792;57.698;11.946;2022-11-21T13:13:55;0.67;;;0.67;;
13439;SDS011;6792;57.698;11.946;2022-11-21T13:16:28;1.17;;;0.93;;
13439;SDS011;6792;57.698;11.946;2022-11-21T13:19:11;4.23;;;1.90;;
13439;SDS011;6792;57.698;11.946;2022-11-21T13:21:46;1.53;;;0.80;;
13439;SDS011;6792;57.698;11.946;2022-11-21T13:27:27;1.33;;;0.87;;
13439;SDS011;6792;57.698;11.946;2022-11-21T13:33:09;2.70;;;1.80;;
13439;SDS011;6792;57.698;11.946;2022-11-21T13:42:06;0.80;;;0.80;;
13439;SDS011;6792;57.698;11.946;2022-11-21T13:44:55;1.00;;;0.90;;
13439;SDS011;6792;57.698;11.946;2022-11-21T13:50:33;1.10;;;1.00;;
13439;SDS011;6792;57.698;11.946;2022-11-21T13:53:12;1.57;;;1.20;;
13439;SDS011;6792;57.698;11.946;2022-11-21T13:55:47;2.07;;;1.40;;
13439;SDS011;6792;57.698;11.946;2022-11-21T13:58:34;2.77;;;1.50;;
13439;SDS011;6792;57.698;11.946;2022-11-21T14:01:20;2.17;;;1.00;;
13439;SDS011;6792;57.698;11.946;2022-11-21T14:07:18;1.50;;;1.37;;
13439;SDS011;6792;57.698;11.946;2022-11-21T14:09:53;2.60;;;1.43;;
13439;SDS011;6792;57.698;11.946;2022-11-21T14:12:26;1.83;;;1.37;;
13439;SDS011;6792;57.698;11.946;2022-11-21T14:15:07;2.37;;;1.37;;
13439;SDS011;6792;57.698;11.946;2022-11-21T14:17:44;1.57;;;1.20;;
13439;SDS011;6792;57.698;11.946;2022-11-21T14:20:17;2.50;;;1.63;;
13439;SDS011;6792;57.698;11.946;2022-11-21T14:22:53;1.60;;;1.47;;
13439;SDS011;6792;57.698;11.946;2022-11-21T14:25:34;2.57;;;1.80;;
13439;SDS011;6792;57.698;11.946;2022-11-21T14:28:06;2.67;;;1.47;;
13439;SDS011;6792;57.698;11.946;2022-11-21T14:30:42;1.87;;;1.70;;
13439;SDS011;6792;57.698;11.946;2022-11-21T14:33:22;1.80;;;1.50;;
13439;SDS011;6792;57.698;11.946;2022-11-21T14:35:54;2.17;;;1.70;;
13439;SDS011;6792;57.698;11.946;2022-11-21T14:38:27;3.00;;;1.90;;
13439;SDS011;6792;57.698;11.946;2022-11-21T14:41:21;2.50;;;1.80;;
13439;SDS011;6792;57.698;11.946;2022-11-21T14:44:11;3.00;;;1.90;;
13439;SDS011;6792;57.698;11.946;2022-11-21T14:46:48;2.77;;;2.10;;
13439;SDS011;6792;57.698;11.946;2022-11-21T14:49:19;4.17;;;1.80;;
13439;SDS011;6792;57.698;11.946;2022-11-21T14:51:53;3.03;;;2.10;;
13439;SDS011;6792;57.698;11.946;2022-11-21T14:54:30;3.03;;;1.90;;
13439;SDS011;6792;57.698;11.946;2022-11-21T14:57:03;4.27;;;1.77;;
13439;SDS011;6792;57.698;11.946;2022-11-21T14:59:36;2.07;;;1.53;;
13439;SDS011;6792;57.698;11.946;2022-11-21T15:02:10;3.67;;;1.77;;
13439;SDS011;6792;57.698;11.946;2022-11-21T15:04:41;2.30;;;1.77;;
13439;SDS011;6792;57.698;11.946;2022-11-21T15:07:18;2.37;;;1.90;;
13439;SDS011;6792;57.698;11.946;2022-11-21T15:09:49;2.70;;;2.17;;
13439;SDS011;6792;57.698;11.946;2022-11-21T15:12:20;2.30;;;2.07;;
13439;SDS011;6792;57.698;11.946;2022-11-21T15:14:56;1.83;;;1.70;;
13439;SDS011;6792;57.698;11.946;2022-11-21T15:17:28;2.87;;;1.80;;
13439;SDS011;6792;57.698;11.946;2022-11-21T15:20:05;2.97;;;1.80;;
13439;SDS011;6792;57.698;11.946;2022-11-21T15:22:46;2.60;;;1.90;;
13439;SDS011;6792;57.698;11.946;2022-11-21T15:25:17;2.37;;;1.73;;
13439;SDS011;6792;57.698;11.946;2022-11-21T15:27:49;2.60;;;2.00;;
13439;SDS011;6792;57.698;11.946;2022-11-21T15:30:24;2.83;;;1.97;;
13439;SDS011;6792;57.698;11.946;2022-11-21T15:32:58;3.13;;;1.70;;
13439;SDS011;6792;57.698;11.946;2022-11-21T15:35:51;2.50;;;1.80;;
13439;SDS011;6792;57.698;11.946;2022-11-21T15:38:25;2.63;;;1.90;;
13439;SDS011;6792;57.698;11.946;2022-11-21T15:41:03;2.83;;;1.87;;
13439;SDS011;6792;57.698;11.946;2022-11-21T15:43:40;3.27;;;2.20;;
13439;SDS011;6792;57.698;11.946;2022-11-21T15:46:16;2.20;;;1.87;;
13439;SDS011;6792;57.698;11.946;2022-11-21T15:48:47;2.40;;;1.87;;
13439;SDS011;6792;57.698;11.946;2022-11-21T15:51:17;3.10;;;2.30;;
13439;SDS011;6792;57.698;11.946;2022-11-21T15:53:48;3.53;;;2.17;;